Time;durP1;ratioP1;P1;durP2;ratioP2;P2;SDS_P1;SDS_P2;PMS_P1;PMS_P2;Temp;Humidity;BMP_temperature;BMP_pressure;BME280_temperature;BME280_humidity;BME280_pressure;Samples;Min_cycle;Max_cycle;Signal;HPM_P1;HPM_P2
2022/01/12 00:00:15;;;;;;;25.23;14.27;;;;;;;1.70;87.11;103385.06;4954248;29;20039;-87
2022/01/12 00:02:40;;;;;;;24.73;13.25;;;;;;;1.74;87.41;103401.78;4954514;29;20394;-87
2022/01/12 00:05:09;;;;;;;25.10;14.15;;;;;;;1.77;86.78;103412.28;4938315;29;20039;-86
2022/01/12 00:07:35;;;;;;;22.88;13.57;;;;;;;1.81;86.19;103419.19;4951739;29;20035;-87
2022/01/12 00:10:00;;;;;;;25.60;14.23;;;;;;;1.79;86.46;103409.53;4903569;29;20047;-87
2022/01/12 00:12:28;;;;;;;24.58;14.25;;;;;;;1.60;86.78;103378.56;4919659;29;20040;-87
2022/01/12 00:14:54;;;;;;;26.67;13.70;;;;;;;1.86;86.06;103424.25;4928889;29;20548;-87
2022/01/12 00:17:20;;;;;;;22.88;12.82;;;;;;;1.91;86.13;103433.72;4936654;29;20047;-87
2022/01/12 00:19:45;;;;;;;24.55;13.43;;;;;;;1.85;85.96;103411.84;4903892;29;20079;-87
2022/01/12 00:22:13;;;;;;;23.15;13.57;;;;;;;1.82;85.75;103409.34;4950522;28;20473;-87
2022/01/12 00:25:05;;;;;;;24.48;13.88;;;;;;;2.00;85.77;103429.63;4919275;29;20091;-87
2022/01/12 00:33:13;;;;;;;23.48;13.82;;;;;;;1.66;85.62;103377.31;4913674;29;20046;-87
2022/01/12 00:35:44;;;;;;;24.40;14.40;;;;;;;1.64;85.73;103376.53;4936442;29;20055;-87
2022/01/12 00:38:11;;;;;;;26.27;14.27;;;;;;;1.90;85.13;103420.44;4919063;29;20032;-87
2022/01/12 00:40:44;;;;;;;24.77;14.57;;;;;;;1.86;85.26;103417.09;4918498;29;20134;-87
2022/01/12 00:43:10;;;;;;;23.70;14.27;;;;;;;1.92;85.33;103431.94;4935989;29;20035;-87
2022/01/12 00:45:38;;;;;;;27.30;14.63;;;;;;;1.71;85.89;103405.53;4903215;29;20440;-87
2022/01/12 00:48:07;;;;;;;26.92;15.38;;;;;;;1.99;87.37;103462.69;4918737;29;20464;-87
2022/01/12 00:50:33;;;;;;;25.38;14.27;;;;;;;1.62;87.88;103423.94;4918576;29;20044;-87
2022/01/12 00:52:58;;;;;;;26.33;15.63;;;;;;;1.38;88.83;103403.91;4902799;29;20036;-87
2022/01/12 00:55:24;;;;;;;24.23;15.10;;;;;;;1.56;90.94;103450.09;4903040;29;20106;-87
2022/01/12 00:57:51;;;;;;;26.88;15.75;;;;;;;1.48;91.33;103447.06;4949979;28;20457;-87
2022/01/12 01:00:16;;;;;;;31.20;16.65;;;;;;;1.19;92.49;103411.31;4918875;29;20503;-86
2022/01/12 01:02:45;;;;;;;28.05;16.25;;;;;;;1.33;93.73;103451.50;4918539;29;20035;-87
2022/01/12 01:05:10;;;;;;;27.92;16.92;;;;;;;1.24;94.63;103449.38;4902989;29;20087;-86
2022/01/12 01:07:38;;;;;;;30.63;17.42;;;;;;;1.19;95.70;103446.09;4918409;29;20035;-86
2022/01/12 01:10:07;;;;;;;33.33;18.75;;;;;;;1.33;97.05;103491.63;4935354;29;20107;-86
2022/01/12 01:12:35;;;;;;;31.88;17.98;;;;;;;1.09;97.75;103450.25;4918867;29;20044;-85
2022/01/12 01:15:13;;;;;;;33.33;18.85;;;;;;;1.24;98.53;103492.19;4935122;29;20046;-86
2022/01/12 01:25:57;;;;;;;35.72;21.08;;;;;;;0.93;100.00;103442.25;4892845;29;20047;-86
2022/01/12 01:28:22;;;;;;;34.08;20.45;;;;;;;0.97;100.00;103457.19;4918080;29;20071;-86
2022/01/12 01:30:48;;;;;;;39.42;21.58;;;;;;;1.01;100.00;103470.28;4918247;29;20473;-86
2022/01/12 01:33:18;;;;;;;37.05;21.02;;;;;;;1.00;100.00;103470.38;4917888;29;20083;-86
2022/01/12 01:35:53;;;;;;;35.65;19.88;;;;;;;0.85;100.00;103440.03;4917974;29;20038;-86
2022/01/12 01:38:19;;;;;;;37.08;21.90;;;;;;;0.94;100.00;103484.94;4935518;29;20179;-86
2022/01/12 01:40:46;;;;;;;37.30;21.77;;;;;;;0.64;100.00;103445.63;4918438;29;20036;-86
2022/01/12 01:43:36;;;;;;;41.50;23.23;;;;;;;0.94;100.00;103492.97;4902407;29;20027;-87
2022/01/12 01:54:25;;;;;;;38.05;22.25;;;;;;;0.90;100.00;103502.13;4920784;29;20563;-87
2022/01/12 01:56:51;;;;;;;41.80;22.05;;;;;;;0.86;100.00;103479.19;4918056;29;20032;-86
2022/01/12 01:59:16;;;;;;;37.92;22.42;;;;;;;0.55;100.00;103419.44;4935228;29;20062;-87
2022/01/12 02:01:41;;;;;;;38.28;21.52;;;;;;;0.88;100.00;103472.78;4902269;29;20490;-87
2022/01/12 02:04:07;;;;;;;42.90;22.75;;;;;;;0.54;100.00;103415.03;4887764;29;20038;-87
2022/01/12 02:06:36;;;;;;;42.85;24.40;;;;;;;0.50;100.00;103389.44;4921556;29;20040;-86
2022/01/12 02:09:02;;;;;;;41.10;21.67;;;;;;;0.67;100.00;103418.75;4935064;29;20109;-87
2022/01/12 02:11:28;;;;;;;38.55;23.70;;;;;;;0.64;100.00;103434.09;4958154;28;20524;-87
2022/01/12 02:13:55;;;;;;;43.40;23.63;;;;;;;0.81;100.00;103457.19;4940624;29;20035;-87
2022/01/12 02:16:28;;;;;;;44.28;24.33;;;;;;;0.81;100.00;103460.75;4955864;28;20043;-87
2022/01/12 02:40:43;;;;;;;41.08;22.15;;;;;;;0.97;100.00;103491.94;4957524;29;20035;-87
2022/01/12 02:43:37;;;;;;;41.95;25.08;;;;;;;0.71;100.00;103470.22;4940017;29;20054;-87
2022/01/12 02:51:34;;;;;;;43.35;24.55;;;;;;;0.93;100.00;103501.06;4969898;28;20053;-87
2022/01/12 02:54:00;;;;;;;44.15;24.23;;;;;;;0.93;100.00;103495.72;4940684;29;20042;-87
2022/01/12 02:56:28;;;;;;;43.00;25.35;;;;;;;0.45;100.00;103420.91;4923839;29;20043;-87
2022/01/12 02:58:56;;;;;;;42.17;23.95;;;;;;;0.57;100.00;103444.25;4956352;28;20042;-87
2022/01/12 03:01:50;;;;;;;43.92;25.48;;;;;;;0.75;100.00;103478.91;4955456;28;20089;-86
2022/01/12 03:04:13;;;;;;;46.20;25.17;;;;;;;0.48;100.00;103434.09;4956523;29;20098;-86
2022/01/12 03:06:41;;;;;;;43.60;24.67;;;;;;;0.96;100.00;103516.94;4971792;28;20416;-87
2022/01/12 03:09:10;;;;;;;43.05;24.75;;;;;;;0.77;100.00;103493.94;4970905;28;20083;-86
2022/01/12 03:11:37;;;;;;;44.85;25.65;;;;;;;0.98;100.00;103534.63;4939632;29;20118;-86
2022/01/12 03:14:03;;;;;;;44.90;25.00;;;;;;;0.98;100.00;103539.13;4939551;29;20039;-86
2022/01/12 03:16:29;;;;;;;48.58;25.48;;;;;;;0.83;100.00;103522.13;4956450;28;20035;-87
2022/01/12 03:18:57;;;;;;;48.03;26.38;;;;;;;0.99;100.00;103557.75;4955501;29;20472;-87
2022/01/12 03:21:26;;;;;;;47.22;26.40;;;;;;;0.97;100.00;103556.09;4956620;28;20114;-86
2022/01/12 03:23:53;;;;;;;48.00;26.35;;;;;;;1.01;100.00;103549.63;4956230;28;20046;-87
2022/01/12 03:26:20;;;;;;;46.40;26.85;;;;;;;0.83;100.00;103522.13;4939092;29;20043;-87
2022/01/12 03:28:56;;;;;;;48.53;26.70;;;;;;;0.71;100.00;103515.66;4956183;28;20039;-87
2022/01/12 03:31:26;;;;;;;46.72;25.88;;;;;;;1.01;100.00;103563.00;4971071;28;20042;-87
2022/01/12 03:34:06;;;;;;;47.58;26.27;;;;;;;0.52;100.00;103479.25;4938823;29;20075;-87
2022/01/12 03:39:07;;;;;;;45.63;25.23;;;;;;;0.57;100.00;103488.81;4956431;29;20042;-87
2022/01/12 03:41:35;;;;;;;48.78;25.83;;;;;;;0.51;100.00;103476.66;4971143;28;20082;-86
2022/01/12 03:44:04;;;;;;;46.80;26.90;;;;;;;0.67;100.00;103493.56;4938830;29;20067;-86
2022/01/12 03:46:33;;;;;;;46.83;26.42;;;;;;;0.77;100.00;103509.06;4970701;28;20094;-87
2022/01/12 03:49:01;;;;;;;47.67;27.08;;;;;;;0.72;100.00;103504.00;4955830;28;20031;-86
2022/01/12 03:51:27;;;;;;;46.80;26.85;;;;;;;0.58;100.00;103482.53;4970608;28;20043;-87
2022/01/12 03:53:52;;;;;;;51.97;26.92;;;;;;;0.67;100.00;103498.91;4938555;29;20424;-86
2022/01/12 03:56:18;;;;;;;51.55;28.05;;;;;;;0.67;100.00;103506.06;4954731;29;20039;-86
2022/01/12 03:58:43;;;;;;;49.58;28.38;;;;;;;0.72;100.00;103513.84;4970539;28;20031;-87
2022/01/12 04:01:09;;;;;;;52.58;28.13;;;;;;;0.94;100.00;103562.47;4939048;29;20039;-86
2022/01/12 04:03:39;;;;;;;52.95;28.00;;;;;;;0.35;100.00;103465.94;4954696;28;20396;-87
2022/01/12 04:08:49;;;;;;;58.03;30.00;;;;;;;0.57;100.00;103508.38;4942975;29;20147;-87
2022/01/12 04:11:17;;;;;;;52.13;29.15;;;;;;;0.42;100.00;103479.84;4903828;29;20118;-87
2022/01/12 04:13:44;;;;;;;57.00;30.10;;;;;;;0.63;100.00;103508.03;4936227;29;20485;-87
2022/01/12 04:16:11;;;;;;;54.78;29.85;;;;;;;0.77;100.00;103527.78;4903763;29;20138;-87
2022/01/12 04:18:37;;;;;;;56.92;30.70;;;;;;;0.94;100.00;103559.78;4904298;29;20040;-87
2022/01/12 04:21:05;;;;;;;54.50;29.95;;;;;;;1.09;100.00;103576.78;4903685;29;20058;-87
2022/01/12 04:23:35;;;;;;;57.67;30.13;;;;;;;1.11;100.00;103568.69;4919389;29;20369;-86
2022/01/12 04:26:04;;;;;;;58.63;30.77;;;;;;;0.88;100.00;103541.44;4903235;29;20127;-87
2022/01/12 04:28:30;;;;;;;56.35;31.20;;;;;;;0.91;100.00;103551.94;4919061;29;20059;-86
2022/01/12 04:30:57;;;;;;;56.47;30.60;;;;;;;0.80;100.00;103538.34;4936529;29;20095;-87
2022/01/12 04:33:23;;;;;;;51.97;31.10;;;;;;;1.05;100.00;103577.94;4919231;29;20499;-87
2022/01/12 04:35:54;;;;;;;62.03;31.70;;;;;;;0.85;100.00;103542.47;4950914;29;20039;-87
2022/01/12 04:38:28;;;;;;;63.53;31.63;;;;;;;0.79;100.00;103525.91;4903675;29;20035;-86
2022/01/12 04:40:55;;;;;;;57.88;31.40;;;;;;;0.68;100.00;103505.13;4936135;29;20277;-87
2022/01/12 04:43:23;;;;;;;62.33;31.48;;;;;;;0.92;100.00;103544.81;4918690;29;20039;-87
2022/01/12 04:50:41;;;;;;;64.35;32.40;;;;;;;0.99;100.00;103556.84;4918688;29;20508;-86
2022/01/12 04:53:07;;;;;;;62.47;32.75;;;;;;;0.79;100.00;103516.06;4935848;29;20129;-87
2022/01/12 04:55:32;;;;;;;61.45;32.65;;;;;;;0.61;100.00;103485.03;4918489;29;20039;-87
2022/01/12 04:57:58;;;;;;;65.70;32.72;;;;;;;1.07;100.00;103553.78;4918783;29;20027;-86
2022/01/12 05:00:28;;;;;;;61.95;33.40;;;;;;;0.87;100.00;103519.19;4918700;29;20449;-87
2022/01/12 05:08:37;;;;;;;60.30;32.92;;;;;;;0.59;100.00;103478.91;4920860;29;20171;-86
2022/01/12 05:13:49;;;;;;;65.45;33.90;;;;;;;1.03;100.00;103550.41;4935607;29;20054;-87
2022/01/12 05:16:25;;;;;;;71.38;34.28;;;;;;;0.99;100.00;103557.75;4918340;29;20031;-88
2022/01/12 05:18:53;;;;;;;67.13;35.05;;;;;;;1.04;100.00;103560.16;4918024;29;20042;-88
2022/01/12 05:21:24;;;;;;;66.28;34.25;;;;;;;1.03;100.00;103547.72;4918394;29;20040;-88
2022/01/12 05:23:50;;;;;;;70.15;35.42;;;;;;;0.53;100.00;103469.41;4919154;29;20036;-88
2022/01/12 05:26:15;;;;;;;64.43;35.13;;;;;;;0.86;100.00;103527.28;4917957;29;20070;-88
2022/01/12 05:28:41;;;;;;;67.60;35.08;;;;;;;1.07;100.00;103565.31;4902211;29;20481;-88
2022/01/12 05:31:09;;;;;;;68.78;35.63;;;;;;;0.99;100.00;103552.41;4934972;29;20036;-88
2022/01/12 05:33:36;;;;;;;65.22;33.65;;;;;;;0.99;100.00;103548.84;4935224;29;20040;-87
2022/01/12 05:36:04;;;;;;;69.55;35.75;;;;;;;1.09;100.00;103575.94;4934621;29;20032;-87
2022/01/12 05:38:30;;;;;;;72.65;35.42;;;;;;;1.02;100.00;103559.38;4918283;29;20369;-87
2022/01/12 05:41:00;;;;;;;68.47;35.20;;;;;;;1.15;100.00;103589.84;4938994;29;20035;-87
2022/01/12 05:43:29;;;;;;;66.38;35.30;;;;;;;1.13;100.00;103586.38;4921856;29;20481;-88
2022/01/12 05:45:57;;;;;;;64.45;35.40;;;;;;;1.13;100.00;103596.22;4922025;29;20134;-87
2022/01/12 05:51:06;;;;;;;64.00;34.08;;;;;;;1.00;100.00;103575.50;4939126;29;20062;-87
2022/01/12 05:53:32;;;;;;;63.92;34.35;;;;;;;0.85;100.00;103544.28;4890107;29;20036;-87
2022/01/12 05:55:57;;;;;;;67.55;35.63;;;;;;;1.11;100.00;103588.28;4921757;29;20071;-87
2022/01/12 05:58:23;;;;;;;68.63;35.38;;;;;;;0.94;100.00;103558.94;4921666;29;20048;-87
2022/01/12 06:00:48;;;;;;;67.60;36.67;;;;;;;0.91;100.00;103551.09;4921961;29;20464;-87
2022/01/12 06:03:13;;;;;;;74.55;36.22;;;;;;;1.08;100.00;103580.44;4905901;29;20072;-88
2022/01/12 06:05:42;;;;;;;70.78;36.28;;;;;;;0.65;100.00;103518.63;4921845;29;20401;-88
2022/01/12 06:08:09;;;;;;;74.20;38.15;;;;;;;1.06;100.00;103590.34;4921687;29;20047;-88
2022/01/12 06:10:35;;;;;;;68.32;35.97;;;;;;;0.78;100.00;103545.56;4938482;29;20059;-88
2022/01/12 06:13:03;;;;;;;74.13;36.30;;;;;;;0.76;100.00;103537.63;4905808;29;20032;-88
2022/01/12 06:15:28;;;;;;;73.28;37.33;;;;;;;0.93;100.00;103566.13;4922139;29;20035;-88
2022/01/12 06:17:54;;;;;;;74.10;37.10;;;;;;;0.75;100.00;103537.72;4905738;29;20043;-88
2022/01/12 06:20:22;;;;;;;72.35;38.20;;;;;;;1.11;100.00;103601.66;4921757;29;20042;-89
2022/01/12 06:22:48;;;;;;;77.43;36.88;;;;;;;0.90;100.00;103573.41;4905891;29;20043;-89
2022/01/12 06:25:15;;;;;;;76.57;38.28;;;;;;;1.05;100.00;103600.19;4905623;29;20032;-90
2022/01/12 06:27:50;;;;;;;72.78;38.55;;;;;;;0.81;100.00;103564.97;4890249;29;20034;-88
2022/01/12 06:32:56;;;;;;;72.68;36.72;;;;;;;1.00;100.00;103604.91;4938252;29;20385;-87
2022/01/12 06:35:23;;;;;;;77.25;37.45;;;;;;;0.80;100.00;103573.09;4921196;29;20494;-87
2022/01/12 06:37:52;;;;;;;74.82;38.03;;;;;;;1.05;100.00;103608.19;4937958;29;20106;-88
2022/01/12 06:40:23;;;;;;;75.15;37.63;;;;;;;0.78;100.00;103559.78;4920632;29;20042;-87
2022/01/12 06:43:00;;;;;;;71.57;36.07;;;;;;;1.08;100.00;103623.22;4920718;29;20039;-86
2022/01/12 06:45:26;;;;;;;77.20;38.35;;;;;;;1.11;100.00;103612.34;4937718;29;20396;-87
2022/01/12 06:47:51;;;;;;;68.88;37.45;;;;;;;0.82;100.00;103576.53;4920873;29;20028;-88
2022/01/12 06:50:16;;;;;;;68.35;36.05;;;;;;;0.81;100.00;103580.13;4904560;29;20042;-88
2022/01/12 06:52:43;;;;;;;70.30;36.35;;;;;;;0.79;100.00;103574.03;4889520;29;20489;-88
2022/01/12 06:55:12;;;;;;;73.72;37.28;;;;;;;0.88;100.00;103585.06;4921109;29;20032;-93
2022/01/12 06:57:41;;;;;;;68.60;35.20;;;;;;;0.82;100.00;103564.00;4906325;29;20046;-93
2022/01/12 07:00:12;;;;;;;70.53;36.67;;;;;;;0.84;100.00;103570.16;4907757;29;20043;-91
2022/01/12 07:02:40;;;;;;;71.13;37.28;;;;;;;1.36;100.00;103664.50;4906813;29;20068;-93
2022/01/12 07:05:16;;;;;;;73.70;37.30;;;;;;;0.82;100.00;103573.84;4891374;29;20444;-93
2022/01/12 07:07:43;;;;;;;69.78;36.72;;;;;;;1.13;100.00;103629.16;4906710;29;20075;-93
2022/01/12 07:10:15;;;;;;;71.80;37.08;;;;;;;1.12;100.00;103626.56;4936655;29;20054;-93
2022/01/12 07:12:47;;;;;;;73.72;37.38;;;;;;;1.10;100.00;103633.84;4957689;28;20035;-93
2022/01/12 07:15:20;;;;;;;80.10;38.40;;;;;;;0.93;100.00;103606.22;4973494;28;20035;-93
2022/01/12 07:17:53;;;;;;;72.03;36.20;;;;;;;0.75;100.00;103569.78;4973406;28;20468;-93
2022/01/12 07:20:25;;;;;;;70.70;36.22;;;;;;;0.77;100.00;103560.75;4957783;28;20039;-93
2022/01/12 07:22:55;;;;;;;;;;;;;;;1.43;100.00;103673.88;4952181;29;20074;-93
2022/01/12 07:25:28;;;;;;;67.90;34.92;;;;;;;0.74;100.00;103565.38;4958236;29;19914;-91
2022/01/12 07:28:21;;;;;;;67.15;36.55;;;;;;;0.72;100.00;103560.13;4975067;28;20111;-93
2022/01/12 07:32:01;;;;;;;;;;;;;;;;;;;;;
2022/01/12 07:34:59;;;;;;;67.20;35.00;;;;;;;0.77;100.00;103582.13;4951577;29;20050;-94
2022/01/12 07:44:28;;;;;;;66.75;35.88;;;;;;;0.73;100.00;103598.41;4899368;29;20414;-94
2022/01/12 07:47:02;;;;;;;68.82;36.03;;;;;;;0.78;100.00;103605.22;4933445;29;20050;-93
2022/01/12 07:49:58;;;;;;;70.60;35.70;;;;;;;0.85;100.00;103611.94;4972773;28;20545;-93
2022/01/12 07:52:39;;;;;;;73.85;36.50;;;;;;;0.92;100.00;103617.84;4954804;29;20400;-92
2022/01/12 07:55:12;;;;;;;69.68;37.30;;;;;;;1.01;100.00;103624.50;4925546;29;20047;-93
2022/01/12 07:57:44;;;;;;;70.50;37.42;;;;;;;1.29;100.00;103671.13;4972592;28;20031;-92
2022/01/12 08:00:15;;;;;;;70.95;37.00;;;;;;;1.09;100.00;103640.13;4954848;28;20102;-93
2022/01/12 08:02:55;;;;;;;73.75;37.25;;;;;;;1.47;100.00;103704.88;4955739;28;20447;-93
2022/01/12 08:05:34;;;;;;;69.35;36.67;;;;;;;1.12;100.00;103654.19;4972795;28;20047;-93
2022/01/12 08:08:07;;;;;;;73.00;38.55;;;;;;;1.20;100.00;103659.97;4957846;28;20039;-93
2022/01/12 08:10:51;;;;;;;75.75;39.40;;;;;;;1.65;100.00;103721.72;4939933;29;20400;-93
2022/01/12 08:13:32;;;;;;;71.68;37.70;;;;;;;1.22;100.00;103662.56;4956696;28;20071;-93
2022/01/12 08:16:15;;;;;;;77.78;39.88;;;;;;;1.31;100.00;103682.59;4972505;28;20036;-93
2022/01/12 08:18:52;;;;;;;73.03;37.15;;;;;;;1.51;100.00;103694.88;4956596;28;20400;-93
2022/01/12 08:21:21;;;;;;;79.38;37.30;;;;;;;2.01;100.00;103782.19;4939603;29;20373;-93
2022/01/12 08:23:54;;;;;;;84.28;38.65;;;;;;;1.43;100.00;103683.72;4956341;28;20508;-93
2022/01/12 08:26:28;;;;;;;79.38;38.38;;;;;;;1.87;100.00;103755.31;4955199;29;20090;-94
2022/01/12 08:29:01;;;;;;;78.90;38.13;;;;;;;1.52;100.00;103688.56;4940128;29;20476;-93
2022/01/12 08:31:32;;;;;;;93.95;39.67;;;;;;;1.55;100.00;103691.94;4971792;28;20039;-93
2022/01/12 08:34:04;;;;;;;92.45;40.42;;;;;;;1.74;100.00;103712.28;4940057;29;20416;-93
2022/01/12 08:36:32;;;;;;;94.60;41.08;;;;;;;1.55;100.00;103683.91;4970795;28;20035;-88
2022/01/12 08:38:59;;;;;;;102.70;40.92;;;;;;;2.03;100.00;103766.03;4954023;28;20039;-89
2022/01/12 08:41:25;;;;;;;107.00;40.30;;;;;;;1.57;100.00;103695.38;4953580;28;20054;-88
2022/01/12 08:43:51;;;;;;;90.30;40.47;;;;;;;2.10;100.00;103767.41;4955098;29;20110;-89
2022/01/12 08:46:16;;;;;;;99.60;41.70;;;;;;;2.19;100.00;103777.59;4921794;29;20443;-88
2022/01/12 08:48:42;;;;;;;96.38;40.15;;;;;;;1.84;100.00;103716.19;4937296;29;20039;-89
2022/01/12 08:51:08;;;;;;;94.95;40.60;;;;;;;2.22;100.00;103771.19;4938009;29;20061;-89
2022/01/12 08:53:34;;;;;;;118.68;40.58;;;;;;;2.32;100.00;103779.53;4937751;29;20386;-89
2022/01/12 08:56:00;;;;;;;115.10;40.88;;;;;;;1.80;100.00;103701.25;4969239;28;20039;-89
2022/01/12 08:58:28;;;;;;;107.20;41.60;;;;;;;2.33;100.00;103782.13;4937445;29;20090;-89
2022/01/12 09:00:55;;;;;;;105.55;42.08;;;;;;;2.41;100.00;103785.25;4954076;28;20130;-89
2022/01/12 09:03:22;;;;;;;107.90;42.85;;;;;;;2.20;100.00;103736.47;4953443;28;20035;-89
2022/01/12 09:05:49;;;;;;;103.85;41.95;;;;;;;2.17;100.00;103725.91;4937126;29;20042;-88
2022/01/12 09:08:15;;;;;;;104.80;43.08;;;;;;;2.24;100.00;103743.38;4936056;29;20023;-88
2022/01/12 09:10:40;;;;;;;97.63;42.95;;;;;;;2.61;100.00;103802.84;4937679;28;20110;-88
2022/01/12 09:13:05;;;;;;;101.55;42.75;;;;;;;2.64;100.00;103801.78;4902209;29;20519;-89
2022/01/12 09:15:31;;;;;;;100.60;40.90;;;;;;;2.55;100.00;103772.84;4918182;29;20034;-89
2022/01/12 09:17:57;;;;;;;100.15;39.90;;;;;;;2.59;100.00;103769.03;4935351;29;20631;-88
2022/01/12 09:20:23;;;;;;;82.80;36.70;;;;;;;2.91;100.00;103826.13;4935332;29;20028;-89
2022/01/12 09:22:49;;;;;;;86.80;37.22;;;;;;;2.60;100.00;103777.00;4917597;29;20050;-88
2022/01/12 09:25:15;;;;;;;92.07;37.13;;;;;;;2.67;100.00;103780.16;4918218;29;20035;-89
2022/01/12 09:27:48;;;;;;;85.65;37.00;;;;;;;2.59;100.00;103753.81;4917750;29;20042;-88
2022/01/12 09:30:15;;;;;;;84.43;36.70;;;;;;;2.92;100.00;103811.75;4935227;29;20087;-88
2022/01/12 09:32:40;;;;;;;85.38;37.17;;;;;;;2.92;100.00;103806.41;4918153;29;20047;-88
2022/01/12 09:35:07;;;;;;;94.35;36.15;;;;;;;2.63;100.00;103776.81;4934913;29;20404;-88
2022/01/12 09:37:33;;;;;;;89.90;36.70;;;;;;;2.92;100.00;103821.59;4934877;29;20086;-89
2022/01/12 09:39:58;;;;;;;82.95;36.53;;;;;;;2.69;100.00;103783.63;4917409;29;20036;-88
2022/01/12 09:42:23;;;;;;;95.50;37.03;;;;;;;2.60;100.00;103766.25;4918155;29;20039;-88
2022/01/12 09:44:50;;;;;;;97.28;34.33;;;;;;;2.80;100.00;103809.78;4918189;29;20040;-89
2022/01/12 09:47:17;;;;;;;82.05;36.10;;;;;;;3.06;100.00;103844.94;4918016;29;20401;-88
2022/01/12 09:49:44;;;;;;;87.75;33.35;;;;;;;2.56;100.00;103771.91;4917612;29;20031;-89
2022/01/12 09:52:10;;;;;;;90.93;31.42;;;;;;;2.50;100.00;103762.41;4917959;29;20036;-88
2022/01/12 09:54:36;;;;;;;71.75;31.02;;;;;;;2.62;100.00;103783.09;4918007;29;20032;-88
2022/01/12 09:57:03;;;;;;;73.18;29.70;;;;;;;2.62;100.00;103783.09;4917771;29;20028;-89
2022/01/12 09:59:29;;;;;;;63.13;27.77;;;;;;;2.82;100.00;103799.84;4917826;29;20067;-89
2022/01/12 10:01:56;;;;;;;62.30;27.77;;;;;;;2.95;100.00;103818.72;4917982;29;20043;-88
2022/01/12 10:04:24;;;;;;;53.03;25.35;;;;;;;3.19;100.00;103864.69;4917983;29;20048;-88
2022/01/12 10:06:57;;;;;;;60.25;24.73;;;;;;;3.21;100.00;103876.19;4917695;29;20070;-88
2022/01/12 10:09:31;;;;;;;48.92;23.83;;;;;;;3.27;100.00;103877.66;4934628;29;20051;-88
2022/01/12 10:12:04;;;;;;;68.90;26.17;;;;;;;3.23;100.00;103873.41;4934491;29;20095;-89
2022/01/12 10:14:42;;;;;;;58.20;25.60;;;;;;;3.29;100.00;103884.66;4917613;29;20476;-88
2022/01/12 10:17:08;;;;;;;60.30;25.95;;;;;;;2.90;100.00;103808.28;4935692;29;20071;-89
2022/01/12 10:19:34;;;;;;;55.67;26.20;;;;;;;3.01;100.00;103817.50;4918519;29;20027;-88
2022/01/12 10:22:03;;;;;;;75.55;27.45;;;;;;;2.98;100.00;103811.38;4918614;29;20043;-88
2022/01/12 10:24:32;;;;;;;56.92;26.52;;;;;;;3.34;100.00;103874.50;4918098;29;20038;-88
2022/01/12 10:26:58;;;;;;;67.38;25.50;;;;;;;3.20;100.00;103849.44;4921986;29;20122;-88
2022/01/12 10:29:28;;;;;;;95.88;25.60;;;;;;;3.33;100.00;103867.38;4905582;29;20122;-88
2022/01/12 10:31:58;;;;;;;72.38;25.27;;;;;;;3.40;100.00;103867.91;4920733;29;20032;-89
2022/01/12 10:34:44;;;;;;;53.30;25.27;;;;;;;3.25;100.00;103826.75;4920736;29;20539;-88
2022/01/12 10:37:12;;;;;;;68.80;24.90;;;;;;;3.23;100.00;103822.44;4921314;29;20036;-89
2022/01/12 10:39:40;;;;;;;74.65;23.75;;;;;;;3.27;100.00;103848.13;4937957;29;20036;-89
2022/01/12 10:42:08;;;;;;;155.75;24.88;;;;;;;3.25;100.00;103867.00;4921001;29;20071;-89
2022/01/12 10:44:38;;;;;;;102.38;24.58;;;;;;;3.16;100.00;103862.22;4938299;29;20039;-89
2022/01/12 10:47:18;;;;;;;86.18;24.15;;;;;;;3.15;100.00;103873.88;4921079;29;20082;-88
2022/01/12 10:50:05;;;;;;;90.70;24.35;;;;;;;3.22;100.00;103871.69;4920296;29;20035;-89
2022/01/12 10:52:38;;;;;;;106.95;24.42;;;;;;;3.20;100.00;103871.78;4920227;29;20027;-89
2022/01/12 10:55:09;;;;;;;98.30;24.75;;;;;;;3.28;100.00;103874.03;4920747;29;20035;-88
2022/01/12 10:57:37;;;;;;;131.45;23.70;;;;;;;3.12;100.00;103847.25;4920895;29;20604;-89
2022/01/12 11:00:04;;;;;;;70.63;27.70;;;;;;;3.37;100.00;103875.28;4920476;29;20485;-89
2022/01/12 11:02:35;;;;;;;137.10;26.10;;;;;;;3.02;100.00;103824.59;4920599;29;20027;-89
2022/01/12 11:05:02;;;;;;;59.97;25.45;;;;;;;2.88;100.00;103796.78;4920422;29;20489;-89
2022/01/12 11:07:30;;;;;;;68.60;25.25;;;;;;;2.96;100.00;103812.41;4920346;29;20028;-88
2022/01/12 11:10:03;;;;;;;68.65;26.27;;;;;;;3.11;100.00;103853.56;4930811;29;20511;-89
2022/01/12 11:12:29;;;;;;;102.10;25.52;;;;;;;2.83;100.00;103803.38;4939234;29;20046;-89
2022/01/12 11:14:55;;;;;;;112.72;26.20;;;;;;;3.22;100.00;103871.69;4956882;28;20035;-88
2022/01/12 11:17:20;;;;;;;103.30;24.90;;;;;;;2.90;100.00;103828.88;4939421;29;20039;-89
2022/01/12 11:20:01;;;;;;;54.30;25.65;;;;;;;3.26;100.00;103870.53;4939495;29;20399;-90
2022/01/12 11:22:27;;;;;;;53.22;25.83;;;;;;;3.41;100.00;103876.78;4939337;29;20439;-89
2022/01/12 11:24:54;;;;;;;55.50;25.83;;;;;;;3.36;100.00;103876.22;4938806;29;20038;-88
2022/01/12 11:27:21;;;;;;;56.35;26.08;;;;;;;3.31;100.00;103880.06;4931661;29;20056;-89
2022/01/12 11:29:47;;;;;;;54.10;26.38;;;;;;;3.05;100.00;103845.88;4922880;29;20035;-89
2022/01/12 11:32:22;;;;;;;51.88;25.48;;;;;;;3.23;100.00;103868.91;4908114;29;20078;-89
2022/01/12 11:35:02;;;;;;;52.20;25.55;;;;;;;2.90;100.00;103810.13;4939153;29;20090;-89
2022/01/12 11:37:27;;;;;;;51.85;24.55;;;;;;;3.30;100.00;103872.94;4955079;28;20035;-87
2022/01/12 11:39:53;;;;;;;49.25;24.45;;;;;;;2.99;100.00;103818.44;4923217;29;20035;-88
2022/01/12 11:42:18;;;;;;;50.25;25.05;;;;;;;3.40;100.00;103886.69;4906858;29;20039;-88
2022/01/12 11:44:44;;;;;;;51.00;24.25;;;;;;;3.49;100.00;103893.31;4938756;29;20094;-88
2022/01/12 11:47:21;;;;;;;47.00;23.88;;;;;;;3.56;100.00;103875.88;4922518;29;20039;-88
2022/01/12 11:50:16;;;;;;;50.50;23.90;;;;;;;3.74;100.00;103879.22;4939959;29;20067;-94
2022/01/12 11:52:42;;;;;;;44.30;23.13;;;;;;;3.33;100.00;103792.25;4926438;29;20469;-88
2022/01/12 11:55:16;;;;;;;45.10;23.63;;;;;;;3.39;100.00;103780.25;4907473;29;20118;-88
2022/01/12 11:57:48;;;;;;;48.83;25.25;;;;;;;3.64;100.00;103822.53;4938643;29;20032;-87
2022/01/12 12:00:19;;;;;;;49.95;24.15;;;;;;;3.51;100.00;103790.25;4937919;29;20038;-88
2022/01/12 12:02:52;;;;;;;51.93;24.57;;;;;;;3.99;100.00;103869.63;4955850;28;20041;-88
2022/01/12 12:05:41;;;;;;;48.90;24.05;;;;;;;3.66;100.00;103827.81;4922567;29;20289;-88
2022/01/12 12:08:07;;;;;;;47.00;24.38;;;;;;;3.50;100.00;103820.72;4937520;29;20050;-88
2022/01/12 12:10:35;;;;;;;46.67;23.38;;;;;;;3.67;100.00;103853.72;4906845;29;20056;-88
2022/01/12 12:13:03;;;;;;;49.45;24.17;;;;;;;3.67;100.00;103845.66;4936354;29;20032;-88
2022/01/12 12:15:29;;;;;;;48.38;24.48;;;;;;;3.55;100.00;103809.69;4936083;29;20035;-88
2022/01/12 12:17:58;;;;;;;50.13;25.25;;;;;;;3.50;100.00;103803.78;4902986;29;20032;-88
2022/01/12 12:20:27;;;;;;;50.55;25.52;;;;;;;3.57;100.00;103812.28;4919069;29;20031;-88
2022/01/12 12:22:55;;;;;;;51.42;25.58;;;;;;;3.52;100.00;103834.06;4903206;29;20047;-88
2022/01/12 12:25:28;;;;;;;50.38;25.15;;;;;;;3.21;100.00;103801.06;4903642;29;20492;-86
2022/01/12 12:27:55;;;;;;;51.80;25.50;;;;;;;3.68;100.00;103875.09;4919027;29;20032;-87
2022/01/12 12:30:22;;;;;;;48.97;25.25;;;;;;;3.35;100.00;103816.28;4936153;29;20099;-87
2022/01/12 12:33:12;;;;;;;54.67;26.17;;;;;;;3.49;100.00;103824.38;4918919;29;20413;-87
2022/01/12 12:35:39;;;;;;;50.90;24.90;;;;;;;3.38;100.00;103809.88;4935968;29;20066;-86
2022/01/12 12:38:11;;;;;;;55.70;25.48;;;;;;;3.56;100.00;103829.34;4935975;29;20048;-86
2022/01/12 12:40:40;;;;;;;45.83;23.67;;;;;;;3.48;100.00;103809.25;4918451;29;20024;-86
2022/01/12 12:43:27;;;;;;;50.38;24.35;;;;;;;3.73;100.00;103839.91;4918873;29;20034;-86